Time;durP1;ratioP1;P1;durP2;ratioP2;P2;SDS_P1;SDS_P2;PMS_P1;PMS_P2;Temp;Humidity;BMP_temperature;BMP_pressure;BME280_temperature;BME280_humidity;BME280_pressure;Samples;Min_cycle;Max_cycle;Signal;HPM_P1;HPM_P2
2022/01/19 00:00:53;;;;;;;25.35;12.20;;;;;;;19.60;43.79;102575.78;4993097;28;20033;-71
2022/01/19 00:03:19;;;;;;;17.65;11.40;;;;;;;19.64;43.75;102571.19;4995632;28;20033;-72
2022/01/19 00:05:45;;;;;;;20.80;11.80;;;;;;;19.56;43.86;102579.50;4996405;28;20385;-72
2022/01/19 00:08:16;;;;;;;16.92;11.38;;;;;;;19.54;43.85;102576.25;4996306;28;20041;-73
2022/01/19 00:10:42;;;;;;;23.50;13.00;;;;;;;19.53;43.90;102558.00;4996329;28;20033;-72
2022/01/19 00:13:14;;;;;;;18.30;10.75;;;;;;;19.46;43.87;102552.94;4996216;28;20037;-72
2022/01/19 00:15:45;;;;;;;19.38;11.15;;;;;;;19.49;43.84;102543.16;4996149;28;20054;-72
2022/01/19 00:18:11;;;;;;;19.55;11.48;;;;;;;19.51;43.66;102540.88;4995400;28;20030;-72
2022/01/19 00:20:47;;;;;;;26.27;12.40;;;;;;;19.44;43.75;102537.81;4996090;28;20030;-72
2022/01/19 00:23:15;;;;;;;25.23;11.80;;;;;;;19.38;43.81;102532.44;4994752;28;20030;-72
2022/01/19 00:25:42;;;;;;;20.02;10.63;;;;;;;19.33;43.82;102521.50;4994760;28;20081;-71
2022/01/19 00:28:08;;;;;;;18.73;10.18;;;;;;;19.31;43.80;102523.00;4995912;28;20112;-72
2022/01/19 00:30:33;;;;;;;22.75;12.02;;;;;;;19.29;43.75;102515.00;4994545;28;20497;-72
2022/01/19 00:32:59;;;;;;;23.10;11.27;;;;;;;19.22;43.93;102514.69;4995166;28;20049;-72
2022/01/19 00:35:25;;;;;;;22.83;11.40;;;;;;;19.23;43.96;102512.75;4995794;28;20041;-72
2022/01/19 00:37:51;;;;;;;21.70;13.70;;;;;;;19.24;43.80;102515.16;4995568;28;20058;-72
2022/01/19 00:40:16;;;;;;;28.08;13.23;;;;;;;19.23;43.92;102515.50;4995713;28;20030;-72
2022/01/19 00:42:46;;;;;;;28.65;11.90;;;;;;;19.22;43.92;102506.38;4995909;28;20026;-72
2022/01/19 00:45:16;;;;;;;26.35;11.88;;;;;;;19.18;43.88;102494.31;4995620;28;20030;-72
2022/01/19 00:47:42;;;;;;;;;;;;;;;19.11;43.91;102492.03;4995298;28;20069;-72
2022/01/19 00:50:13;;;;;;;20.80;10.32;;;;;;;19.21;43.79;102496.44;4995502;28;19913;-72
2022/01/19 00:52:39;;;;;;;21.42;11.27;;;;;;;19.22;43.65;102491.72;4995552;28;20022;-72
2022/01/19 00:55:08;;;;;;;19.05;11.73;;;;;;;19.13;44.08;102497.28;4995456;28;20033;-74
2022/01/19 00:57:38;;;;;;;24.52;13.13;;;;;;;19.17;43.90;102473.28;4994183;28;20385;-72
2022/01/19 01:00:06;;;;;;;21.95;11.35;;;;;;;19.21;43.84;102459.59;4995376;28;20034;-73
2022/01/19 01:02:32;;;;;;;28.23;12.00;;;;;;;19.21;43.79;102443.78;4994611;28;20069;-72
2022/01/19 01:05:00;;;;;;;22.80;11.32;;;;;;;19.19;43.82;102425.84;4995237;28;20050;-72
2022/01/19 01:07:27;;;;;;;21.58;11.90;;;;;;;19.10;44.05;102418.38;4995255;28;20027;-72
2022/01/19 01:09:54;;;;;;;21.90;11.93;;;;;;;19.11;44.03;102413.66;4995210;28;20054;-72
2022/01/19 01:12:30;;;;;;;25.08;12.38;;;;;;;19.10;44.29;102423.13;4995079;28;20370;-72
2022/01/19 01:20:23;;;;;;;22.42;12.32;;;;;;;19.06;44.26;102403.59;4995013;28;20060;-72
2022/01/19 01:22:51;;;;;;;25.63;12.68;;;;;;;18.85;44.96;102408.19;4994981;28;20496;-72
2022/01/19 01:25:19;;;;;;;16.85;10.48;;;;;;;18.84;45.00;102421.22;4994947;28;20037;-72
2022/01/19 01:27:44;;;;;;;22.40;11.57;;;;;;;18.93;44.80;102434.25;4993698;28;20508;-72
2022/01/19 01:30:16;;;;;;;20.95;11.88;;;;;;;18.88;45.06;102456.56;4995026;28;20022;-72
2022/01/19 01:32:41;;;;;;;24.35;10.63;;;;;;;18.90;45.02;102460.66;4994034;28;20023;-72
2022/01/19 01:35:08;;;;;;;17.73;9.80;;;;;;;19.04;44.60;102457.66;4994964;28;20026;-72
2022/01/19 01:37:33;;;;;;;25.17;11.18;;;;;;;19.08;44.50;102448.38;4993286;28;20042;-72
2022/01/19 01:40:01;;;;;;;23.10;11.02;;;;;;;19.02;44.63;102460.78;4994513;28;20026;-73
2022/01/19 01:42:30;;;;;;;23.33;9.70;;;;;;;18.91;44.80;102467.00;4994589;28;20026;-72
2022/01/19 01:44:59;;;;;;;21.33;10.48;;;;;;;19.07;44.39;102457.03;4994588;28;20034;-72
2022/01/19 01:47:30;;;;;;;23.90;9.95;;;;;;;18.99;44.79;102444.00;4993767;28;20466;-72
2022/01/19 01:55:17;;;;;;;16.95;8.60;;;;;;;19.12;44.24;102416.13;4994614;28;20033;-72
2022/01/19 01:57:43;;;;;;;16.40;8.82;;;;;;;19.20;44.28;102416.41;4993074;28;20023;-72
2022/01/19 02:00:12;;;;;;;23.13;8.32;;;;;;;19.17;44.46;102423.41;4994274;28;20168;-72
2022/01/19 02:02:40;;;;;;;19.63;8.70;;;;;;;19.16;44.61;102415.44;4993443;28;20057;-72
2022/01/19 02:05:10;;;;;;;20.33;9.27;;;;;;;19.10;44.95;102428.66;4992846;28;20034;-72
2022/01/19 02:10:31;;;;;;;22.55;8.05;;;;;;;19.22;44.62;102426.03;4994134;28;20489;-72
2022/01/19 02:23:56;;;;;;;13.40;8.63;;;;;;;19.23;44.82;102393.56;4993463;28;20037;-72
2022/01/19 02:26:44;;;;;;;18.25;7.80;;;;;;;19.08;45.28;102400.47;4993750;28;20030;-72
2022/01/19 02:29:27;;;;;;;22.17;8.57;;;;;;;19.08;45.22;102406.00;4993783;28;20113;-78
2022/01/19 02:40:18;;;;;;;22.70;7.63;;;;;;;18.82;45.99;102395.81;4993505;28;20049;-72
2022/01/19 02:50:42;;;;;;;14.07;6.95;;;;;;;18.91;45.69;102367.28;4993730;28;20104;-72
2022/01/19 02:53:07;;;;;;;16.00;5.95;;;;;;;18.53;46.91;102373.53;4993345;28;20037;-72
2022/01/19 02:55:35;;;;;;;14.75;6.05;;;;;;;18.68;46.45;102378.59;4993600;28;20026;-72
2022/01/19 02:58:03;;;;;;;12.38;5.57;;;;;;;18.60;46.64;102379.38;4993205;28;20109;-72
2022/01/19 03:11:11;;;;;;;11.75;5.03;;;;;;;18.89;46.09;102308.63;4993394;28;20133;-72
2022/01/19 03:13:37;;;;;;;16.30;5.97;;;;;;;18.70;46.20;102317.34;4991799;28;20054;-72
2022/01/19 03:16:03;;;;;;;12.75;4.40;;;;;;;18.74;46.14;102305.28;4993025;28;20120;-72
2022/01/19 03:18:28;;;;;;;12.43;4.72;;;;;;;18.73;46.05;102311.13;4992501;28;20030;-72
2022/01/19 03:20:59;;;;;;;12.25;4.47;;;;;;;18.58;46.44;102320.75;4992973;28;20034;-72
2022/01/19 03:23:24;;;;;;;9.52;3.80;;;;;;;18.77;46.03;102310.16;4993089;28;20118;-72
2022/01/19 03:25:53;;;;;;;12.50;4.22;;;;;;;18.58;46.62;102304.13;4992894;28;20058;-72
2022/01/19 03:28:19;;;;;;;9.10;3.78;;;;;;;18.78;46.32;102297.91;4992987;28;20421;-72
2022/01/19 03:30:49;;;;;;;15.25;4.35;;;;;;;18.80;46.29;102292.06;4991660;28;20033;-72
2022/01/19 03:33:17;;;;;;;8.55;3.58;;;;;;;18.88;45.96;102291.19;4992202;28;20104;-72
2022/01/19 03:35:51;;;;;;;8.73;3.10;;;;;;;18.61;46.83;102295.19;4991591;28;20027;-72
2022/01/19 03:38:16;;;;;;;10.48;3.38;;;;;;;18.79;46.08;102284.88;4997060;28;20382;-72
2022/01/19 03:40:44;;;;;;;10.07;4.38;;;;;;;18.81;46.33;102288.13;4996748;28;20034;-72
2022/01/19 03:43:12;;;;;;;10.68;3.42;;;;;;;18.63;46.80;102294.84;4996823;28;20381;-72
2022/01/19 03:45:38;;;;;;;9.48;3.50;;;;;;;18.77;46.46;102292.72;4996729;28;20034;-72
2022/01/19 03:50:46;;;;;;;9.43;3.83;;;;;;;18.90;45.97;102285.34;4997072;28;20473;-72
2022/01/19 03:53:12;;;;;;;10.35;3.00;;;;;;;18.58;46.63;102284.75;4996635;28;20492;-72
2022/01/19 03:55:41;;;;;;;15.63;3.97;;;;;;;18.68;46.44;102289.19;4996477;28;20053;-72
2022/01/19 03:58:06;;;;;;;8.30;2.70;;;;;;;18.97;46.00;102296.72;4996419;28;20038;-72
2022/01/19 04:00:35;;;;;;;7.20;3.17;;;;;;;18.97;45.75;102289.22;4996507;28;20097;-72
2022/01/19 04:03:06;;;;;;;5.72;2.35;;;;;;;18.64;46.84;102299.25;4995622;28;20031;-72
2022/01/19 04:05:55;;;;;;;4.80;2.72;;;;;;;19.04;45.48;102297.00;4996380;28;20030;-72
2022/01/19 04:08:22;;;;;;;7.00;2.83;;;;;;;18.71;46.43;102296.81;4996313;28;20023;-73
2022/01/19 04:10:50;;;;;;;8.25;2.97;;;;;;;18.94;45.72;102295.41;4996261;28;20117;-72
2022/01/19 04:16:01;;;;;;;7.35;2.88;;;;;;;18.75;46.05;102301.38;4945795;28;20045;-73
2022/01/19 04:18:36;;;;;;;9.50;2.67;;;;;;;18.92;45.76;102291.38;4996082;28;20034;-72
2022/01/19 04:21:02;;;;;;;6.72;2.53;;;;;;;18.51;46.85;102303.81;4996266;28;20109;-72
2022/01/19 04:23:30;;;;;;;8.18;2.78;;;;;;;18.83;45.83;102310.78;4994797;28;20023;-72
2022/01/19 04:25:56;;;;;;;8.63;2.45;;;;;;;18.67;46.23;102310.50;4994643;28;20042;-72
2022/01/19 04:28:21;;;;;;;10.57;2.65;;;;;;;18.41;46.86;102315.25;4995987;28;20094;-72
2022/01/19 04:30:47;;;;;;;6.70;2.45;;;;;;;18.53;46.74;102307.09;4995868;28;20365;-72
2022/01/19 04:33:16;;;;;;;7.93;2.40;;;;;;;18.76;45.83;102316.03;4995183;28;20087;-72
2022/01/19 04:36:08;;;;;;;11.20;2.00;;;;;;;18.92;45.48;102305.22;4994478;28;20025;-71
2022/01/19 04:48:12;;;;;;;8.35;2.10;;;;;;;19.04;45.00;102303.38;4952685;28;20038;-72
2022/01/19 05:06:52;;;;;;;14.60;2.35;;;;;;;18.66;45.76;102316.34;4994579;28;20022;-72
2022/01/19 05:09:49;;;;;;;5.53;1.73;;;;;;;19.02;44.92;102315.91;4993794;28;20041;-72
2022/01/19 05:14:53;;;;;;;4.72;1.80;;;;;;;18.74;45.58;102326.59;4994144;28;20496;-72
2022/01/19 05:17:18;;;;;;;6.30;2.05;;;;;;;18.86;45.35;102332.28;4993611;28;20030;-72
2022/01/19 05:19:44;;;;;;;13.45;3.80;;;;;;;18.94;45.20;102333.38;4993949;28;20038;-73
2022/01/19 05:22:12;;;;;;;6.60;1.50;;;;;;;18.63;45.94;102341.91;4993980;28;20033;-72
2022/01/19 05:24:37;;;;;;;6.30;2.00;;;;;;;18.61;45.90;102328.41;4993938;28;20397;-72
2022/01/19 05:27:03;;;;;;;6.68;1.77;;;;;;;18.67;46.05;102326.31;4992619;28;20038;-79
2022/01/19 05:29:33;;;;;;;3.78;1.23;;;;;;;18.40;46.81;102319.16;4994131;28;20034;-72
2022/01/19 05:32:01;;;;;;;7.38;1.73;;;;;;;18.55;46.46;102327.75;4993113;28;20041;-72
2022/01/19 05:34:27;;;;;;;11.10;1.80;;;;;;;18.32;47.21;102325.53;4993724;28;20108;-73
2022/01/19 05:36:54;;;;;;;6.18;1.60;;;;;;;18.57;46.45;102327.44;4945913;28;1395918;-72
2022/01/19 05:39:22;;;;;;;8.52;1.90;;;;;;;18.90;45.60;102324.94;4994646;28;20046;-72
2022/01/19 05:41:48;;;;;;;5.38;1.35;;;;;;;18.92;45.55;102341.22;4993444;28;20033;-72
2022/01/19 05:44:14;;;;;;;7.95;1.83;;;;;;;18.93;45.80;102351.16;4994589;28;20026;-72
2022/01/19 05:46:39;;;;;;;8.32;1.77;;;;;;;18.72;46.52;102362.13;4993735;28;20026;-72
2022/01/19 05:49:05;;;;;;;7.50;2.30;;;;;;;19.18;45.34;102389.03;4994468;28;20030;-72
2022/01/19 05:51:39;;;;;;;11.13;2.28;;;;;;;19.31;44.98;102418.47;4994391;28;20030;-72
2022/01/19 05:54:18;;;;;;;5.82;1.45;;;;;;;18.80;46.16;102423.00;4993344;28;20034;-73
2022/01/19 05:56:46;;;;;;;6.90;1.45;;;;;;;18.41;46.20;102418.47;4994370;28;20036;-72
2022/01/19 05:59:12;;;;;;;3.85;1.20;;;;;;;18.77;45.17;102415.38;4993455;28;20022;-72
2022/01/19 06:01:37;;;;;;;10.05;2.35;;;;;;;18.72;44.88;102421.06;4993600;28;20034;-73
2022/01/19 06:04:10;;;;;;;6.07;1.35;;;;;;;18.63;44.63;102416.66;4994267;28;20390;-73
2022/01/19 06:06:39;;;;;;;6.05;1.88;;;;;;;18.60;44.65;102426.44;4994204;28;20046;-73
2022/01/19 06:11:56;;;;;;;7.60;1.40;;;;;;;18.40;44.43;102421.56;4994133;28;20049;-72
2022/01/19 06:14:23;;;;;;;10.38;2.63;;;;;;;18.20;44.53;102414.69;4994020;28;20385;-73
2022/01/19 06:16:48;;;;;;;13.35;3.45;;;;;;;18.25;44.39;102417.31;4993247;28;20109;-73
2022/01/19 06:19:17;;;;;;;9.02;2.20;;;;;;;18.11;44.27;102414.69;4993690;28;20117;-73
2022/01/19 06:21:46;;;;;;;12.02;2.20;;;;;;;18.02;44.22;102424.94;4992739;28;20062;-72
2022/01/19 06:24:11;;;;;;;10.70;2.28;;;;;;;18.03;44.09;102427.38;4993907;28;20370;-73
2022/01/19 06:26:38;;;;;;;6.88;1.65;;;;;;;17.95;43.91;102435.66;4993752;28;20025;-72
2022/01/19 06:29:04;;;;;;;10.88;2.58;;;;;;;17.85;44.06;102438.72;4993797;28;20022;-72
2022/01/19 06:31:38;;;;;;;9.20;2.28;;;;;;;17.79;43.79;102445.53;4993013;28;20042;-73
2022/01/19 06:34:03;;;;;;;10.18;2.45;;;;;;;17.78;43.68;102460.50;4993667;28;20113;-73
2022/01/19 06:36:32;;;;;;;10.07;2.75;;;;;;;17.66;43.61;102453.59;4993236;28;20133;-73
2022/01/19 06:39:01;;;;;;;13.32;2.28;;;;;;;17.68;43.52;102462.41;4993557;28;20130;-73
2022/01/19 06:41:26;;;;;;;12.30;2.67;;;;;;;17.56;43.45;102464.94;4993569;28;20039;-72
2022/01/19 06:43:52;;;;;;;11.85;2.53;;;;;;;17.50;43.54;102466.22;4993460;28;20045;-72
2022/01/19 06:46:33;;;;;;;17.65;3.15;;;;;;;17.25;43.64;102467.72;4992693;28;20104;-72
2022/01/19 06:48:58;;;;;;;9.95;3.22;;;;;;;17.41;43.39;102477.22;4992262;28;20053;-72
2022/01/19 06:51:24;;;;;;;10.63;2.92;;;;;;;17.31;43.53;102484.97;4993617;28;20065;-72
2022/01/19 06:53:50;;;;;;;11.57;2.75;;;;;;;17.31;43.07;102490.50;4993597;28;20026;-72
2022/01/19 06:56:16;;;;;;;20.05;4.35;;;;;;;17.26;43.17;102496.97;4993372;28;20509;-73
2022/01/19 06:58:41;;;;;;;11.13;3.03;;;;;;;17.20;43.17;102501.81;4993181;28;20030;-72
2022/01/19 07:01:09;;;;;;;20.27;3.63;;;;;;;17.09;43.21;102499.63;4992550;28;20052;-72
2022/01/19 07:03:35;;;;;;;28.75;4.35;;;;;;;17.08;42.83;102498.81;4993197;28;20022;-73
2022/01/19 07:06:01;;;;;;;19.85;4.72;;;;;;;16.95;43.32;102494.16;4993236;28;20037;-77
2022/01/19 07:08:27;;;;;;;18.40;3.05;;;;;;;16.89;42.96;102498.97;4993267;28;20084;-73
2022/01/19 07:10:53;;;;;;;11.07;2.38;;;;;;;16.80;43.12;102492.59;4991756;28;20030;-73
2022/01/19 07:13:22;;;;;;;9.57;2.35;;;;;;;16.72;43.25;102479.53;4993111;28;20034;-78
2022/01/19 07:15:50;;;;;;;15.48;3.83;;;;;;;16.76;43.19;102486.03;4991172;28;20033;-78
2022/01/19 07:18:19;;;;;;;11.07;2.33;;;;;;;16.68;43.20;102480.44;4992496;28;20125;-72
2022/01/19 07:20:46;;;;;;;15.98;2.88;;;;;;;16.73;43.06;102483.09;4991796;28;20081;-72
2022/01/19 07:23:12;;;;;;;15.32;3.28;;;;;;;16.76;42.93;102491.56;4991732;28;20037;-73
2022/01/19 07:25:40;;;;;;;10.20;2.50;;;;;;;16.61;43.35;102500.19;4992960;28;20031;-72
2022/01/19 07:28:11;;;;;;;12.57;4.07;;;;;;;16.64;43.16;102510.59;4991926;28;20084;-73
2022/01/19 07:30:37;;;;;;;15.02;2.90;;;;;;;16.68;42.94;102506.09;4992925;28;20073;-73
2022/01/19 07:33:03;;;;;;;13.90;3.03;;;;;;;16.58;42.78;102509.91;4992929;28;20052;-79
2022/01/19 07:35:29;;;;;;;9.93;2.67;;;;;;;16.56;42.92;102516.88;4993296;28;20027;-73
2022/01/19 07:37:57;;;;;;;14.18;4.22;;;;;;;16.58;42.86;102517.38;4992555;28;20050;-75
2022/01/19 07:40:25;;;;;;;11.55;2.25;;;;;;;16.59;42.64;102528.09;4992910;28;20033;-73
2022/01/19 07:42:52;;;;;;;18.23;3.10;;;;;;;16.44;42.80;102535.88;4992890;28;20026;-76
2022/01/19 07:45:20;;;;;;;6.28;2.40;;;;;;;16.48;42.65;102551.53;4992880;28;20027;-73
2022/01/19 07:47:46;;;;;;;11.70;2.53;;;;;;;16.37;42.97;102555.63;4992796;28;20424;-79
2022/01/19 07:50:14;;;;;;;18.00;3.03;;;;;;;16.32;42.68;102555.72;4991488;28;20037;-73
2022/01/19 07:52:42;;;;;;;8.98;2.00;;;;;;;16.34;42.58;102554.31;4991525;28;20436;-74
2022/01/19 07:55:08;;;;;;;10.20;1.98;;;;;;;16.29;42.63;102543.38;4992817;28;20026;-72
2022/01/19 07:57:41;;;;;;;7.30;2.67;;;;;;;16.17;42.88;102572.56;4992686;28;20034;-72
2022/01/19 08:00:10;;;;;;;43.85;5.10;;;;;;;16.16;42.76;102585.56;4992683;28;20419;-72
2022/01/19 08:02:36;;;;;;;10.60;2.72;;;;;;;16.17;42.69;102595.50;4992690;28;20030;-81
2022/01/19 08:05:02;;;;;;;9.15;2.45;;;;;;;16.20;42.50;102599.56;4992670;28;20034;-77
2022/01/19 08:07:33;;;;;;;11.20;3.10;;;;;;;16.21;42.57;102606.72;4992309;28;20023;-73
2022/01/19 08:10:01;;;;;;;16.48;4.03;;;;;;;16.14;42.76;102600.78;4991386;28;20085;-78
2022/01/19 08:12:27;;;;;;;9.93;2.13;;;;;;;16.18;42.58;102601.81;4992566;28;20113;-79
2022/01/19 08:14:53;;;;;;;14.43;3.28;;;;;;;16.09;42.77;102598.94;4992614;28;20480;-72
2022/01/19 08:17:19;;;;;;;16.27;2.45;;;;;;;16.11;42.77;102613.25;4992330;28;20116;-81
2022/01/19 08:19:47;;;;;;;12.45;3.53;;;;;;;16.04;42.66;102618.34;4990227;28;20536;-73
2022/01/19 08:22:15;;;;;;;18.23;8.20;;;;;;;16.02;42.60;102607.63;4988895;28;20019;-72
2022/01/19 08:24:46;;;;;;;23.25;4.55;;;;;;;16.01;42.58;102605.97;4994569;28;20723;-72
2022/01/19 08:27:12;;;;;;;25.88;5.18;;;;;;;15.88;42.95;102631.59;4992966;28;20485;-72
2022/01/19 08:29:38;;;;;;;77.78;47.17;;;;;;;15.92;42.81;102638.13;4994132;28;20029;-72
2022/01/19 08:32:08;;;;;;;28.90;16.63;;;;;;;15.95;42.65;102647.75;4994410;28;20023;-72
2022/01/19 08:34:35;;;;;;;15.02;3.53;;;;;;;15.87;42.94;102641.00;4996177;28;20428;-71
2022/01/19 08:37:01;;;;;;;17.70;4.18;;;;;;;15.83;42.69;102648.22;4996003;28;20050;-81
2022/01/19 08:39:29;;;;;;;17.35;3.08;;;;;;;15.96;42.51;102649.38;4995773;28;20497;-71
2022/01/19 08:41:55;;;;;;;10.25;3.30;;;;;;;16.06;42.86;102671.25;4995857;28;20081;-72
2022/01/19 08:44:22;;;;;;;10.00;2.83;;;;;;;16.20;42.35;102687.81;4995709;28;20030;-74
2022/01/19 08:46:50;;;;;;;13.18;2.85;;;;;;;16.20;42.46;102696.91;4995616;28;20033;-81
2022/01/19 08:49:15;;;;;;;19.02;4.18;;;;;;;16.25;42.64;102702.34;4995380;28;20030;-81
2022/01/19 08:51:41;;;;;;;16.45;4.57;;;;;;;16.36;42.49;102714.00;4994612;28;20492;-79
2022/01/19 08:54:11;;;;;;;16.83;3.50;;;;;;;16.41;42.59;102715.84;4993805;28;20046;-75
2022/01/19 08:56:39;;;;;;;17.92;4.60;;;;;;;16.28;42.81;102718.28;4983398;28;20031;-72
2022/01/19 08:59:10;;;;;;;11.35;3.30;;;;;;;16.33;42.39;102729.22;4994843;28;20432;-73
2022/01/19 09:01:39;;;;;;;14.98;4.68;;;;;;;16.53;42.11;102721.66;4995142;28;20030;-73
2022/01/19 09:04:07;;;;;;;26.65;17.20;;;;;;;16.61;42.07;102734.75;4995388;28;20029;-73
2022/01/19 09:06:33;;;;;;;18.45;6.22;;;;;;;16.70;41.84;102746.78;4995320;28;20425;-73
2022/01/19 09:08:58;;;;;;;14.05;3.28;;;;;;;16.73;41.80;102751.69;4995204;28;20032;-73
2022/01/19 09:11:27;;;;;;;12.95;3.80;;;;;;;16.54;41.95;102748.94;4995251;28;20106;-73
2022/01/19 09:13:55;;;;;;;14.48;3.22;;;;;;;16.65;41.96;102755.94;4995158;28;20098;-73
2022/01/19 09:16:24;;;;;;;8.90;2.97;;;;;;;16.51;42.08;102759.78;4995016;28;20018;-73
2022/01/19 09:18:49;;;;;;;15.38;3.47;;;;;;;16.50;41.78;102758.16;4995015;28;20481;-74
2022/01/19 09:21:18;;;;;;;15.77;3.75;;;;;;;16.55;41.59;102747.00;4994940;28;20022;-73
2022/01/19 09:23:46;;;;;;;14.73;2.95;;;;;;;16.27;41.99;102749.75;4994905;28;20033;-80
2022/01/19 09:26:11;;;;;;;18.30;5.47;;;;;;;16.41;41.75;102760.81;4995027;28;20027;-73
2022/01/19 09:28:37;;;;;;;18.85;3.80;;;;;;;16.39;41.45;102746.47;4993694;28;20451;-79
2022/01/19 09:31:11;;;;;;;15.57;5.53;;;;;;;16.28;41.57;102767.09;4994874;28;20438;-72
2022/01/19 09:33:37;;;;;;;17.20;3.65;;;;;;;16.35;41.64;102762.03;4993718;28;20030;-72
2022/01/19 09:38:34;;;;;;;12.70;4.03;;;;;;;16.33;41.38;102764.28;4995016;28;20425;-73
2022/01/19 09:41:03;;;;;;;17.02;3.90;;;;;;;16.47;41.09;102778.88;4994715;28;20070;-73
2022/01/19 09:43:31;;;;;;;17.42;2.95;;;;;;;16.47;40.84;102770.59;4994722;28;20037;-73
2022/01/19 09:46:01;;;;;;;15.07;3.25;;;;;;;16.52;40.79;102784.31;4994628;28;20030;-73
2022/01/19 09:48:29;;;;;;;11.43;3.75;;;;;;;16.57;40.63;102781.47;4994699;28;20038;-73
2022/01/19 09:50:56;;;;;;;26.05;3.65;;;;;;;16.65;40.71;102786.28;4994864;28;20389;-74
2022/01/19 09:53:24;;;;;;;25.10;3.83;;;;;;;16.59;40.82;102793.03;4994707;28;20030;-75
2022/01/19 09:55:52;;;;;;;11.13;3.20;;;;;;;16.66;40.15;102789.88;4994335;28;20026;-72
2022/01/19 09:58:21;;;;;;;11.77;3.60;;;;;;;16.71;40.35;102781.53;4993024;28;20532;-73
2022/01/19 10:00:47;;;;;;;14.30;4.82;;;;;;;16.80;40.17;102787.97;4994389;28;20141;-73
2022/01/19 10:03:27;;;;;;;17.45;3.97;;;;;;;16.77;40.20;102787.75;4993799;28;20026;-73
2022/01/19 10:05:58;;;;;;;14.75;3.70;;;;;;;16.76;40.14;102797.16;4994326;28;20038;-73
2022/01/19 10:08:56;;;;;;;16.85;5.13;;;;;;;16.91;39.76;102792.16;4994429;28;20076;-72
2022/01/19 10:16:58;;;;;;;13.30;3.65;;;;;;;17.01;39.36;102791.16;4991871;28;20083;-72
2022/01/19 10:19:24;;;;;;;8.48;3.13;;;;;;;16.96;39.17;102796.78;4993977;28;20477;-73
2022/01/19 10:22:10;;;;;;;14.50;4.60;;;;;;;16.81;38.62;102797.91;4993938;28;20038;-73
2022/01/19 10:24:41;;;;;;;10.93;3.90;;;;;;;16.94;38.99;102796.28;4993995;28;20050;-73
2022/01/19 10:27:39;;;;;;;22.00;5.97;;;;;;;16.97;38.63;102798.41;4993840;28;20508;-73
2022/01/19 10:30:05;;;;;;;11.65;2.80;;;;;;;17.03;38.74;102813.75;4992496;28;20362;-73
2022/01/19 10:32:40;;;;;;;10.25;2.70;;;;;;;16.68;38.86;102815.22;4993748;28;20061;-73
2022/01/19 10:35:15;;;;;;;13.95;2.78;;;;;;;16.86;38.14;102825.41;4993736;28;20088;-74
2022/01/19 10:37:41;;;;;;;11.57;2.55;;;;;;;16.83;38.69;102822.44;4993544;28;20042;-72
2022/01/19 10:40:14;;;;;;;11.73;3.00;;;;;;;17.11;37.74;102834.31;4993514;28;20038;-71
2022/01/19 10:42:39;;;;;;;19.60;3.15;;;;;;;17.05;38.09;102830.84;4982190;28;20030;-72
2022/01/19 10:45:07;;;;;;;13.45;3.15;;;;;;;17.10;37.71;102850.06;4992900;28;20026;-73
2022/01/19 10:47:45;;;;;;;11.70;3.75;;;;;;;17.20;37.60;102843.53;4993441;28;20019;-76
2022/01/19 10:50:25;;;;;;;7.50;2.85;;;;;;;17.28;36.97;102851.09;4991910;28;20562;-81
2022/01/19 10:52:53;;;;;;;12.82;3.10;;;;;;;17.42;37.46;102853.84;4993555;28;20018;-73
2022/01/19 10:55:30;;;;;;;12.05;2.88;;;;;;;17.38;37.32;102864.72;4991268;28;20052;-72
2022/01/19 10:57:56;;;;;;;11.30;3.05;;;;;;;17.41;37.60;102871.56;4986438;28;20034;-74
2022/01/19 11:00:28;;;;;;;16.45;4.55;;;;;;;17.51;37.32;102879.63;4976129;28;20042;-73
2022/01/19 11:03:13;;;;;;;8.88;3.53;;;;;;;17.37;37.76;102881.59;4975133;28;20034;-73
2022/01/19 11:06:09;;;;;;;12.70;2.92;;;;;;;17.33;37.40;102872.28;4976038;28;20026;-73
2022/01/19 11:08:36;;;;;;;16.08;3.30;;;;;;;17.63;37.13;102874.41;4968665;28;20069;-73
2022/01/19 11:11:02;;;;;;;11.82;2.90;;;;;;;17.65;37.31;102871.34;4973772;28;20034;-73
2022/01/19 11:13:38;;;;;;;9.88;3.17;;;;;;;17.68;37.23;102868.78;4973465;28;20030;-73
2022/01/19 11:16:04;;;;;;;13.40;2.67;;;;;;;17.78;37.17;102881.59;4975741;28;20026;-75
2022/01/19 11:18:32;;;;;;;16.08;10.10;;;;;;;17.41;37.39;102868.81;4991352;28;20038;-72
2022/01/19 11:21:04;;;;;;;10.32;3.25;;;;;;;17.13;38.32;102876.25;4996202;28;20037;-72
2022/01/19 11:23:49;;;;;;;17.20;2.88;;;;;;;17.29;38.06;102882.31;4994060;28;20022;-72
2022/01/19 11:26:17;;;;;;;6.95;2.60;;;;;;;17.52;37.35;102888.75;4996732;28;20037;-72
2022/01/19 11:28:46;;;;;;;10.90;3.30;;;;;;;17.46;37.58;102888.06;4992819;28;20457;-72
2022/01/19 11:31:15;;;;;;;12.73;3.77;;;;;;;17.35;37.97;102900.41;4991433;28;20026;-72
2022/01/19 11:33:51;;;;;;;10.43;3.00;;;;;;;17.66;37.14;102898.66;4992833;28;20089;-72
2022/01/19 11:36:26;;;;;;;15.40;3.17;;;;;;;17.75;37.28;102904.31;4992944;28;20397;-72
2022/01/19 11:39:07;;;;;;;12.48;2.92;;;;;;;17.82;37.23;102912.19;4992819;28;20037;-72
2022/01/19 11:41:44;;;;;;;10.30;2.50;;;;;;;17.87;37.24;102915.66;4992678;28;20105;-72
2022/01/19 11:44:28;;;;;;;8.35;2.83;;;;;;;17.83;36.86;102908.28;4993068;28;20093;-73
2022/01/19 11:46:55;;;;;;;11.52;3.88;;;;;;;17.95;37.06;102914.13;4991455;28;20117;-73
2022/01/19 11:49:41;;;;;;;19.13;7.00;;;;;;;17.95;36.80;102919.66;4992811;28;20022;-73
2022/01/19 11:52:07;;;;;;;13.73;3.83;;;;;;;18.03;36.94;102933.56;4992847;28;20026;-74
2022/01/19 11:54:34;;;;;;;7.80;2.55;;;;;;;18.37;36.13;102929.50;4991503;28;20025;-74
2022/01/19 11:57:00;;;;;;;8.60;3.10;;;;;;;18.39;36.22;102916.16;4993529;28;20081;-73
2022/01/19 11:59:30;;;;;;;16.25;3.17;;;;;;;18.39;36.03;102921.69;4996567;28;20027;-73
2022/01/19 12:02:20;;;;;;;15.45;4.68;;;;;;;18.30;36.19;102942.94;4994938;28;20022;-73
2022/01/19 12:04:50;;;;;;;13.98;7.35;;;;;;;18.21;36.17;102931.78;4996411;28;20031;-75
2022/01/19 12:07:34;;;;;;;12.80;5.07;;;;;;;18.19;35.58;102936.81;4996385;28;20045;-73
2022/01/19 12:09:59;;;;;;;10.68;5.10;;;;;;;18.08;36.11;102934.59;4996346;28;20034;-73
2022/01/19 12:12:29;;;;;;;14.18;5.10;;;;;;;17.90;36.27;102933.59;4995078;28;20022;-73
2022/01/19 12:14:55;;;;;;;9.40;3.33;;;;;;;18.11;36.05;102937.53;4996224;28;20049;-73
2022/01/19 12:17:28;;;;;;;27.45;13.50;;;;;;;17.58;36.49;102929.78;4996284;28;20439;-77
2022/01/19 12:19:55;;;;;;;18.40;5.32;;;;;;;18.01;36.14;102940.53;4996068;28;20492;-73
2022/01/19 12:22:28;;;;;;;12.43;3.95;;;;;;;18.13;35.81;102940.81;4996184;28;20520;-73
2022/01/19 12:25:09;;;;;;;9.88;4.22;;;;;;;18.13;35.75;102940.81;4996464;28;20025;-75
2022/01/19 12:27:38;;;;;;;11.23;3.97;;;;;;;17.98;35.82;102941.16;4996021;28;20066;-73
2022/01/19 12:30:14;;;;;;;12.38;5.55;;;;;;;17.97;35.83;102920.16;4995275;28;20485;-74
2022/01/19 12:32:50;;;;;;;10.73;5.55;;;;;;;17.88;36.09;102922.03;4995104;28;20482;-73
2022/01/19 12:35:20;;;;;;;8.70;3.35;;;;;;;18.17;35.85;102911.41;4995937;28;20387;-73
2022/01/19 12:37:48;;;;;;;9.25;3.03;;;;;;;18.06;35.76;102915.53;4995547;28;20589;-73
2022/01/19 12:40:17;;;;;;;8.30;3.28;;;;;;;18.19;35.70;102922.16;4995718;28;20030;-73
2022/01/19 12:42:47;;;;;;;23.17;11.63;;;;;;;18.07;36.05;102908.88;4996067;28;20034;-73
2022/01/19 12:45:27;;;;;;;18.85;6.35;;;;;;;18.09;36.08;102914.09;4995824;28;20567;-73
2022/01/19 12:47:55;;;;;;;10.02;3.90;;;;;;;18.18;35.78;102924.09;4994466;28;20397;-73
2022/01/19 12:50:21;;;;;;;17.50;5.72;;;;;;;18.19;35.93;102914.66;4995689;28;20036;-79
2022/01/19 12:52:49;;;;;;;11.60;5.65;;;;;;;18.13;35.83;102907.59;4993943;28;20511;-73
2022/01/19 12:55:18;;;;;;;19.20;9.27;;;;;;;18.25;35.61;102899.59;4995569;28;20026;-80
2022/01/19 12:57:46;;;;;;;41.80;27.05;;;;;;;18.28;35.31;102896.19;4993972;28;20050;-73
2022/01/19 13:00:18;;;;;;;36.30;22.58;;;;;;;18.09;36.03;102898.31;4994739;28;20034;-73
2022/01/19 13:02:44;;;;;;;23.00;14.27;;;;;;;18.09;35.84;102898.31;4995221;28;20033;-72